createdAt,value
2022-08-19T00:02:11.064Z,21.88
2022-08-19T00:04:43.936Z,21.87
2022-08-19T00:07:16.804Z,21.86
2022-08-19T00:09:50.014Z,21.86
2022-08-19T00:12:23.163Z,21.89
2022-08-19T00:14:56.689Z,21.89
2022-08-19T00:17:29.971Z,21.84
2022-08-19T00:20:02.883Z,21.81
2022-08-19T00:22:36.174Z,21.82
2022-08-19T00:25:10.302Z,21.83
2022-08-19T00:27:43.635Z,21.80
2022-08-19T00:30:16.772Z,21.79
2022-08-19T00:32:49.956Z,21.76
2022-08-19T00:35:23.206Z,21.68
2022-08-19T00:37:56.110Z,21.62
2022-08-19T00:40:29.315Z,21.60
2022-08-19T00:43:02.327Z,21.57
2022-08-19T00:45:36.898Z,21.54
2022-08-19T00:48:14.764Z,21.52
2022-08-19T00:50:51.903Z,21.54
2022-08-19T00:53:24.213Z,21.55
2022-08-19T00:56:00.654Z,21.47
2022-08-19T00:58:35.969Z,21.40
2022-08-19T01:01:09.168Z,21.32
2022-08-19T01:03:58.026Z,21.26
2022-08-19T01:06:20.062Z,21.23
2022-08-19T01:08:52.989Z,21.18
2022-08-19T01:11:27.635Z,21.11
2022-08-19T01:14:01.438Z,21.06
2022-08-19T01:16:34.221Z,21.03
2022-08-19T01:19:11.591Z,20.99
2022-08-19T01:21:52.020Z,20.93
2022-08-19T01:24:24.983Z,20.90
2022-08-19T01:26:57.752Z,20.88
2022-08-19T01:29:30.706Z,20.88
2022-08-19T01:32:04.608Z,20.87
2022-08-19T01:34:37.748Z,20.87
2022-08-19T01:37:13.044Z,20.88
2022-08-19T01:39:46.911Z,20.88
2022-08-19T01:42:20.506Z,20.89
2022-08-19T01:44:55.085Z,20.88
2022-08-19T01:47:27.982Z,20.85
2022-08-19T01:50:02.096Z,20.81
2022-08-19T01:52:38.079Z,20.78
2022-08-19T01:55:15.547Z,20.75
2022-08-19T01:57:54.525Z,20.73
2022-08-19T02:00:30.816Z,20.72
2022-08-19T02:03:03.853Z,20.71
2022-08-19T02:05:37.072Z,20.72
2022-08-19T02:08:10.617Z,20.73
2022-08-19T02:10:46.153Z,20.72
2022-08-19T02:13:21.130Z,20.69
2022-08-19T02:15:55.113Z,20.69
2022-08-19T02:18:28.243Z,20.69
2022-08-19T02:21:02.780Z,20.67
2022-08-19T02:23:36.682Z,20.61
2022-08-19T02:26:09.569Z,20.53
2022-08-19T02:28:44.332Z,20.45
2022-08-19T02:31:21.479Z,20.39
2022-08-19T02:33:56.642Z,20.36
2022-08-19T02:36:30.267Z,20.35
2022-08-19T02:39:03.266Z,20.35
2022-08-19T02:41:36.466Z,20.33
2022-08-19T02:44:30.081Z,20.29
2022-08-19T02:46:46.054Z,20.28
2022-08-19T02:49:18.178Z,20.28
2022-08-19T02:51:51.548Z,20.28
2022-08-19T02:54:24.844Z,20.29
2022-08-19T02:56:57.649Z,20.33
2022-08-19T02:59:34.733Z,20.38
2022-08-19T03:02:07.672Z,20.44
2022-08-19T03:04:41.374Z,20.47
2022-08-19T03:07:16.403Z,20.51
2022-08-19T03:09:49.263Z,20.54
2022-08-19T03:12:22.409Z,20.57
2022-08-19T03:14:55.652Z,20.59
2022-08-19T03:17:28.660Z,20.63
2022-08-19T03:20:01.585Z,20.67
2022-08-19T03:22:35.490Z,20.74
2022-08-19T03:25:08.781Z,20.84
2022-08-19T03:27:41.862Z,20.87
2022-08-19T03:30:15.736Z,20.91
2022-08-19T03:32:51.430Z,20.93
2022-08-19T03:35:24.795Z,20.96
2022-08-19T03:37:57.964Z,21.00
2022-08-19T03:40:31.950Z,21.11
2022-08-19T03:43:04.876Z,21.28
2022-08-19T03:45:38.333Z,21.40
2022-08-19T03:48:11.346Z,21.47
2022-08-19T03:50:44.993Z,21.51
2022-08-19T03:53:17.930Z,21.54
2022-08-19T03:55:50.744Z,21.55
2022-08-19T03:58:24.911Z,21.59
2022-08-19T04:00:58.232Z,21.68
2022-08-19T04:03:31.065Z,21.87
2022-08-19T04:06:26.693Z,22.01
2022-08-19T04:09:01.874Z,22.12
2022-08-19T04:11:44.746Z,22.22
2022-08-19T04:14:21.894Z,22.30
2022-08-19T04:16:55.271Z,22.31
2022-08-19T04:19:28.849Z,22.30
2022-08-19T04:22:02.070Z,22.33
2022-08-19T04:24:36.726Z,22.36
2022-08-19T04:27:09.644Z,22.37
2022-08-19T04:29:42.795Z,22.38
2022-08-19T04:32:17.741Z,22.40
2022-08-19T04:35:02.731Z,22.43
2022-08-19T04:37:25.958Z,22.43
2022-08-19T04:40:18.170Z,22.48
2022-08-19T04:42:51.092Z,22.52
2022-08-19T04:45:24.302Z,22.55
2022-08-19T04:48:26.268Z,22.59
2022-08-19T04:50:34.245Z,22.62
2022-08-19T04:53:08.359Z,22.64
2022-08-19T04:55:43.764Z,22.66
2022-08-19T04:58:18.099Z,22.69
2022-08-19T05:00:51.056Z,22.73
2022-08-19T05:03:27.615Z,22.81
2022-08-19T05:05:59.773Z,22.84
2022-08-19T05:08:38.852Z,22.84
2022-08-19T05:11:19.545Z,22.94
2022-08-19T05:13:54.166Z,22.94
2022-08-19T05:16:29.185Z,23.02
2022-08-19T05:19:19.988Z,23.08
2022-08-19T05:22:10.704Z,23.10
2022-08-19T05:25:02.484Z,23.14
2022-08-19T05:27:18.658Z,23.20
2022-08-19T05:29:53.282Z,23.27
2022-08-19T05:32:26.243Z,23.33
2022-08-19T05:34:59.123Z,23.39
2022-08-19T05:37:31.937Z,23.49
2022-08-19T05:40:06.005Z,23.49
2022-08-19T05:42:39.392Z,23.53
2022-08-19T05:45:13.179Z,23.60
2022-08-19T05:47:46.328Z,23.68
2022-08-19T05:50:19.181Z,23.75
2022-08-19T05:52:52.198Z,23.80
2022-08-19T05:55:25.239Z,23.82
2022-08-19T05:57:58.553Z,23.84
2022-08-19T06:00:32.566Z,23.84
2022-08-19T06:03:11.711Z,23.83
2022-08-19T06:05:46.254Z,23.84
2022-08-19T06:08:19.050Z,23.86
2022-08-19T06:10:51.968Z,23.87
2022-08-19T06:13:27.043Z,23.88
2022-08-19T06:16:01.566Z,23.90
2022-08-19T06:18:34.778Z,23.91
2022-08-19T06:21:07.765Z,23.93
2022-08-19T06:23:41.736Z,23.94
2022-08-19T06:26:19.706Z,23.95
2022-08-19T06:28:52.990Z,23.97
2022-08-19T06:31:29.470Z,23.99
2022-08-19T06:34:06.525Z,24.01
2022-08-19T06:36:44.018Z,24.06
2022-08-19T06:39:21.141Z,24.11
2022-08-19T06:41:59.004Z,24.15
2022-08-19T06:44:43.015Z,24.20
2022-08-19T06:47:23.059Z,24.24
2022-08-19T06:49:49.820Z,24.27
2022-08-19T06:52:24.151Z,24.30
2022-08-19T06:54:59.769Z,24.32
2022-08-19T06:57:34.138Z,24.35
2022-08-19T07:00:13.041Z,24.38
2022-08-19T07:02:50.739Z,24.42
2022-08-19T07:05:20.948Z,24.46
2022-08-19T07:07:54.591Z,24.48
2022-08-19T07:10:29.188Z,24.52
2022-08-19T07:13:02.351Z,24.58
2022-08-19T07:15:35.333Z,24.60
2022-08-19T07:18:11.612Z,24.65
2022-08-19T07:20:44.409Z,24.74
2022-08-19T07:23:18.135Z,24.80
2022-08-19T07:25:52.978Z,24.83
2022-08-19T07:28:25.951Z,24.89
2022-08-19T07:31:02.109Z,24.96
2022-08-19T07:33:37.360Z,25.04
2022-08-19T07:36:15.613Z,25.10
2022-08-19T07:38:52.092Z,25.19
2022-08-19T07:41:27.607Z,25.28
2022-08-19T07:44:05.035Z,25.34
2022-08-19T07:46:41.010Z,25.37
2022-08-19T07:49:16.612Z,25.39
2022-08-19T07:52:03.538Z,25.41
2022-08-19T07:54:39.312Z,25.44
2022-08-19T07:57:12.365Z,25.46
2022-08-19T07:59:45.290Z,25.49
2022-08-19T08:02:18.584Z,25.50
2022-08-19T08:05:09.175Z,25.53
2022-08-19T08:08:01.392Z,25.57
2022-08-19T08:10:34.534Z,25.63
2022-08-19T08:13:09.354Z,25.66
2022-08-19T08:15:43.761Z,25.68
2022-08-19T08:18:16.902Z,25.72
2022-08-19T08:20:50.598Z,25.76
2022-08-19T08:23:30.864Z,25.81
2022-08-19T08:26:06.012Z,25.83
2022-08-19T08:28:40.195Z,25.89
2022-08-19T08:31:14.007Z,25.97
2022-08-19T08:33:47.260Z,26.08
2022-08-19T08:36:20.193Z,26.16
2022-08-19T08:41:34.453Z,26.36
2022-08-19T08:44:08.614Z,26.44
2022-08-19T08:46:59.855Z,26.52
2022-08-19T08:49:40.049Z,26.60
2022-08-19T08:52:31.978Z,26.64
2022-08-19T08:55:10.126Z,26.68
2022-08-19T08:57:57.372Z,26.75
2022-08-19T09:00:34.898Z,26.77
2022-08-19T09:03:24.372Z,26.83
2022-08-19T09:06:11.898Z,26.88
2022-08-19T09:09:12.113Z,26.92
2022-08-19T09:12:31.803Z,26.96
2022-08-19T09:15:11.155Z,27.01
2022-08-19T09:17:44.297Z,27.07
2022-08-19T09:20:26.201Z,27.11
2022-08-19T09:22:59.751Z,27.15
2022-08-19T09:25:34.354Z,27.16
2022-08-19T09:28:20.331Z,27.21
2022-08-19T09:30:45.328Z,27.26
2022-08-19T09:33:18.675Z,27.30
2022-08-19T09:35:53.617Z,27.35
2022-08-19T09:38:26.274Z,27.40
2022-08-19T09:40:59.364Z,27.46
2022-08-19T09:43:33.879Z,27.49
2022-08-19T09:46:10.300Z,27.51
2022-08-19T09:48:43.776Z,27.53
2022-08-19T09:51:21.388Z,27.51
2022-08-19T09:53:55.273Z,27.50
2022-08-19T09:56:28.485Z,27.52
2022-08-19T09:59:03.543Z,27.56
2022-08-19T10:01:36.643Z,27.60
2022-08-19T10:04:14.684Z,27.63
2022-08-19T10:06:48.780Z,27.66
2022-08-19T10:09:33.989Z,27.68
2022-08-19T10:11:58.594Z,27.73
2022-08-19T10:14:32.434Z,27.75
2022-08-19T10:17:19.210Z,27.78
2022-08-19T10:19:41.726Z,27.79
2022-08-19T10:22:17.359Z,27.78
2022-08-19T10:24:50.801Z,27.79
2022-08-19T10:27:24.031Z,27.73
2022-08-19T10:29:58.785Z,27.67
2022-08-19T10:32:34.467Z,27.72
2022-08-19T10:35:09.557Z,27.81
2022-08-19T10:37:56.852Z,27.87
2022-08-19T10:40:17.272Z,27.96
2022-08-19T10:42:50.872Z,28.08
2022-08-19T10:45:26.857Z,28.20
2022-08-19T10:48:01.323Z,28.26
2022-08-19T10:50:53.549Z,28.28
2022-08-19T10:53:26.858Z,28.28
2022-08-19T10:56:17.706Z,28.29
2022-08-19T10:58:50.940Z,28.28
2022-08-19T11:01:23.959Z,28.33
2022-08-19T11:03:58.561Z,28.40
2022-08-19T11:06:33.340Z,28.46
2022-08-19T11:09:07.178Z,28.50
2022-08-19T11:11:42.094Z,28.55
2022-08-19T11:14:19.846Z,28.60
2022-08-19T11:16:55.946Z,28.66
2022-08-19T11:19:28.876Z,28.70
2022-08-19T11:22:04.081Z,28.74
2022-08-19T11:24:37.912Z,28.80
2022-08-19T11:27:12.417Z,28.83
2022-08-19T11:29:45.513Z,28.84
2022-08-19T11:32:18.783Z,28.84
2022-08-19T11:34:51.666Z,28.90
2022-08-19T11:37:25.022Z,28.96
2022-08-19T11:39:58.415Z,29.03
2022-08-19T11:42:49.191Z,29.11
2022-08-19T11:45:22.190Z,29.17
2022-08-19T11:47:55.752Z,29.24
2022-08-19T11:50:28.810Z,29.32
2022-08-19T11:53:01.986Z,29.44
2022-08-19T11:55:34.855Z,29.57
2022-08-19T11:58:18.755Z,29.67
2022-08-19T12:00:46.462Z,29.75
2022-08-19T12:03:20.911Z,29.75
2022-08-19T12:05:53.033Z,29.76
2022-08-19T12:08:26.022Z,29.77
2022-08-19T12:11:01.505Z,29.80
2022-08-19T12:13:34.865Z,29.78
2022-08-19T12:16:17.970Z,29.75
2022-08-19T12:18:52.265Z,29.72
2022-08-19T12:21:30.317Z,29.73
2022-08-19T12:24:06.707Z,29.79
2022-08-19T12:26:53.229Z,29.87
2022-08-19T12:29:18.444Z,29.98
2022-08-19T12:31:51.538Z,30.05
2022-08-19T12:34:26.026Z,30.12
2022-08-19T12:37:01.107Z,30.15
2022-08-19T12:39:39.840Z,30.09
2022-08-19T12:42:15.411Z,30.05
2022-08-19T12:44:48.783Z,30.01
2022-08-19T12:47:22.417Z,30.02
2022-08-19T12:49:56.227Z,30.07
2022-08-19T12:52:29.790Z,30.12
2022-08-19T12:55:02.848Z,30.13
2022-08-19T12:57:36.872Z,30.12
2022-08-19T13:00:17.964Z,30.15
2022-08-19T13:02:53.665Z,30.15
2022-08-19T13:05:30.458Z,30.17
2022-08-19T13:08:04.129Z,30.21
2022-08-19T13:10:38.342Z,30.27
2022-08-19T13:13:12.580Z,30.33
2022-08-19T13:15:46.602Z,30.34
2022-08-19T13:18:19.745Z,30.36
2022-08-19T13:20:53.212Z,30.36
2022-08-19T13:23:26.494Z,30.39
2022-08-19T13:26:06.500Z,30.40
2022-08-19T13:28:59.623Z,30.41
2022-08-19T13:31:54.148Z,30.41
2022-08-19T13:34:35.116Z,30.42
2022-08-19T13:37:08.842Z,30.43
2022-08-19T13:39:41.119Z,30.45
2022-08-19T13:42:15.277Z,30.48
2022-08-19T13:44:48.987Z,30.48
2022-08-19T13:47:22.257Z,30.49
2022-08-19T13:49:55.245Z,30.51
2022-08-19T13:52:28.285Z,30.53
2022-08-19T13:55:01.347Z,30.54
2022-08-19T13:57:34.588Z,30.58
2022-08-19T14:00:14.189Z,30.64
2022-08-19T14:02:49.178Z,30.70
2022-08-19T14:05:23.115Z,30.76
2022-08-19T14:07:57.032Z,30.85
2022-08-19T14:10:32.792Z,30.93
2022-08-19T14:13:06.731Z,30.94
2022-08-19T14:15:41.394Z,30.87
2022-08-19T14:18:14.660Z,30.70
2022-08-19T14:20:48.211Z,30.36
2022-08-19T14:23:21.403Z,29.88
2022-08-19T14:25:55.846Z,29.49
2022-08-19T14:28:29.653Z,29.19
2022-08-19T14:31:02.625Z,29.00
2022-08-19T14:33:36.188Z,28.90
2022-08-19T14:36:09.345Z,28.87
2022-08-19T14:38:44.228Z,28.91
2022-08-19T14:41:24.196Z,28.97
2022-08-19T14:43:57.584Z,28.99
2022-08-19T14:46:31.967Z,28.99
2022-08-19T14:49:09.368Z,28.96
2022-08-19T14:51:40.972Z,28.95
2022-08-19T14:54:14.231Z,28.95
2022-08-19T14:56:47.249Z,28.95
2022-08-19T14:59:20.131Z,29.01
2022-08-19T15:01:53.748Z,29.10
2022-08-19T15:04:31.977Z,29.14
2022-08-19T15:07:04.304Z,29.12
2022-08-19T15:09:37.738Z,29.04
2022-08-19T15:12:11.559Z,28.94
2022-08-19T15:14:47.933Z,28.89
2022-08-19T15:17:25.747Z,28.88
2022-08-19T15:19:57.611Z,28.84
2022-08-19T15:22:30.839Z,28.76
2022-08-19T15:25:04.643Z,28.67
2022-08-19T15:27:37.853Z,28.60
2022-08-19T15:30:12.448Z,28.53
2022-08-19T15:32:48.934Z,28.47
2022-08-19T15:35:20.935Z,28.41
2022-08-19T15:37:54.827Z,28.34
2022-08-19T15:40:29.267Z,28.24
2022-08-19T15:43:02.480Z,28.13
2022-08-19T15:45:35.931Z,28.00
2022-08-19T15:48:09.224Z,27.90
2022-08-19T15:50:43.491Z,27.79
2022-08-19T15:53:16.416Z,27.70
2022-08-19T15:55:50.977Z,27.61
2022-08-19T15:58:41.885Z,27.52
2022-08-19T16:01:35.439Z,27.43
2022-08-19T16:04:24.629Z,27.34
2022-08-19T16:07:00.452Z,27.25
2022-08-19T16:09:35.766Z,27.15
2022-08-19T16:12:10.749Z,27.06
2022-08-19T16:14:44.515Z,26.96
2022-08-19T16:17:17.875Z,26.84
2022-08-19T16:19:52.744Z,26.75
2022-08-19T16:22:32.617Z,26.65
2022-08-19T16:25:07.628Z,26.57
2022-08-19T16:27:41.516Z,26.48
2022-08-19T16:30:15.936Z,26.41
2022-08-19T16:32:49.051Z,26.34
2022-08-19T16:35:22.521Z,26.26
2022-08-19T16:37:55.741Z,26.19
2022-08-19T16:40:28.877Z,26.08
2022-08-19T16:43:03.198Z,25.99
2022-08-19T16:45:36.100Z,25.94
2022-08-19T16:48:09.101Z,25.87
2022-08-19T16:50:49.508Z,25.81
2022-08-19T16:53:23.067Z,25.75
2022-08-19T16:55:57.699Z,25.68
2022-08-19T16:58:33.725Z,25.60
2022-08-19T17:01:10.297Z,25.53
2022-08-19T17:03:43.777Z,25.48
2022-08-19T17:06:21.643Z,25.39
2022-08-19T17:09:00.825Z,25.32
2022-08-19T17:11:34.502Z,25.23
2022-08-19T17:14:08.770Z,25.15
2022-08-19T17:16:43.731Z,25.10
2022-08-19T17:19:17.537Z,25.06
2022-08-19T17:21:50.649Z,25.02
2022-08-19T17:24:23.761Z,25.01
2022-08-19T17:26:56.625Z,24.97
2022-08-19T17:29:29.723Z,24.92
2022-08-19T17:32:02.936Z,24.87
2022-08-19T17:34:35.891Z,24.82
2022-08-19T17:37:09.092Z,24.76
2022-08-19T17:39:42.621Z,24.68
2022-08-19T17:42:15.696Z,24.62
2022-08-19T17:44:50.879Z,24.58
2022-08-19T17:47:23.302Z,24.56
2022-08-19T17:49:57.252Z,24.56
2022-08-19T17:52:30.285Z,24.56
2022-08-19T17:55:03.505Z,24.54
2022-08-19T17:57:36.632Z,24.52
2022-08-19T18:00:15.465Z,24.49
2022-08-19T18:03:00.532Z,24.44
2022-08-19T18:05:38.184Z,24.41
2022-08-19T18:08:12.932Z,24.36
2022-08-19T18:10:45.636Z,24.33
2022-08-19T18:13:18.864Z,24.28
2022-08-19T18:15:52.337Z,24.23
2022-08-19T18:18:25.710Z,24.23
2022-08-19T18:20:59.319Z,24.25
2022-08-19T18:23:44.952Z,24.26
2022-08-19T18:26:09.172Z,24.25
2022-08-19T18:28:49.447Z,24.24
2022-08-19T18:31:19.499Z,24.22
2022-08-19T18:33:54.897Z,24.19
2022-08-19T18:36:52.540Z,24.17
2022-08-19T18:39:23.751Z,24.15
2022-08-19T18:42:15.577Z,24.12
2022-08-19T18:45:06.264Z,24.08
2022-08-19T18:47:57.134Z,24.10
2022-08-19T18:50:29.939Z,24.13
2022-08-19T18:53:02.855Z,24.16
2022-08-19T18:55:35.811Z,24.15
2022-08-19T18:58:09.211Z,24.17
2022-08-19T19:00:42.182Z,24.15
2022-08-19T19:03:15.109Z,24.19
2022-08-19T19:05:49.247Z,24.20
2022-08-19T19:08:27.178Z,24.20
2022-08-19T19:10:59.850Z,24.22
2022-08-19T19:13:35.562Z,24.20
2022-08-19T19:16:11.363Z,24.18
2022-08-19T19:18:44.985Z,24.16
2022-08-19T19:21:17.585Z,24.18
2022-08-19T19:23:50.646Z,24.22
2022-08-19T19:26:23.701Z,24.19
2022-08-19T19:28:57.883Z,24.19
2022-08-19T19:31:31.582Z,24.13
2022-08-19T19:34:04.958Z,24.04
2022-08-19T19:36:39.739Z,23.99
2022-08-19T19:39:12.574Z,23.98
2022-08-19T19:41:47.629Z,23.98
2022-08-19T19:44:29.927Z,23.93
2022-08-19T19:46:55.961Z,23.88
2022-08-19T19:49:30.768Z,23.79
2022-08-19T19:52:03.708Z,23.67
2022-08-19T19:54:38.070Z,23.52
2022-08-19T19:57:11.925Z,23.38
2022-08-19T19:59:51.184Z,23.28
2022-08-19T20:02:19.986Z,23.19
2022-08-19T20:04:52.984Z,23.02
2022-08-19T20:07:27.866Z,22.93
2022-08-19T20:10:01.373Z,22.88
2022-08-19T20:12:34.885Z,22.78
2022-08-19T20:15:09.258Z,22.70
2022-08-19T20:17:43.339Z,22.68
2022-08-19T20:20:19.527Z,22.66
2022-08-19T20:22:52.454Z,22.62
2022-08-19T20:25:25.839Z,22.61
2022-08-19T20:28:00.252Z,22.57
2022-08-19T20:30:34.503Z,22.56
2022-08-19T20:33:07.589Z,22.46
2022-08-19T20:35:40.721Z,22.46
2022-08-19T20:38:13.969Z,22.41
2022-08-19T20:40:47.153Z,22.39
2022-08-19T20:43:20.017Z,22.39
2022-08-19T20:45:53.161Z,22.29
2022-08-19T20:48:26.275Z,22.29
2022-08-19T20:50:59.811Z,22.25
2022-08-19T20:53:33.072Z,22.23
2022-08-19T20:56:07.161Z,22.15
2022-08-19T20:58:40.850Z,22.07
2022-08-19T21:01:14.149Z,22.06
2022-08-19T21:03:46.973Z,22.06
2022-08-19T21:06:19.252Z,22.03
2022-08-19T21:08:54.631Z,21.95
2022-08-19T21:11:26.774Z,21.93
2022-08-19T21:13:59.356Z,21.91
2022-08-19T21:16:33.352Z,21.93
2022-08-19T21:19:05.220Z,21.93
2022-08-19T21:21:37.293Z,21.95
2022-08-19T21:24:09.147Z,21.95
2022-08-19T21:26:41.009Z,21.94
2022-08-19T21:29:12.593Z,21.94
2022-08-19T21:31:44.597Z,21.96
2022-08-19T21:34:16.348Z,21.97
2022-08-19T21:36:48.452Z,21.94
2022-08-19T21:39:20.377Z,21.94
2022-08-19T21:41:52.657Z,21.94
2022-08-19T21:44:24.413Z,21.92
2022-08-19T21:46:57.085Z,21.89
2022-08-19T21:49:29.080Z,21.88
2022-08-19T21:52:02.193Z,21.85
2022-08-19T21:54:37.941Z,21.82
2022-08-19T21:57:10.587Z,21.80
2022-08-19T21:59:44.038Z,21.80
2022-08-19T22:02:21.291Z,21.80
2022-08-19T22:04:54.529Z,21.80
2022-08-19T22:07:26.346Z,21.78
2022-08-19T22:09:58.298Z,21.77
2022-08-19T22:12:32.847Z,21.72
2022-08-19T22:15:07.192Z,21.64
2022-08-19T22:17:40.486Z,21.63
2022-08-19T22:20:15.757Z,21.64
2022-08-19T22:22:50.467Z,21.64
2022-08-19T22:25:31.509Z,21.63
2022-08-19T22:28:01.720Z,21.63
2022-08-19T22:30:38.237Z,21.63
2022-08-19T22:33:12.606Z,21.64
2022-08-19T22:35:47.111Z,21.64
2022-08-19T22:38:19.572Z,21.65
2022-08-19T22:40:51.901Z,21.63
2022-08-19T22:43:26.355Z,21.59
2022-08-19T22:45:59.371Z,21.60
2022-08-19T22:48:32.901Z,21.61
2022-08-19T22:51:22.655Z,21.62
2022-08-19T22:53:57.395Z,21.60
2022-08-19T22:56:29.220Z,21.57
2022-08-19T22:59:02.937Z,21.56
2022-08-19T23:01:36.265Z,21.56
2022-08-19T23:04:08.023Z,21.55
2022-08-19T23:06:42.057Z,21.55
2022-08-19T23:09:16.985Z,21.55
2022-08-19T23:11:48.453Z,21.55
2022-08-19T23:14:20.335Z,21.54
2022-08-19T23:16:55.953Z,21.54
2022-08-19T23:19:26.968Z,21.50
2022-08-19T23:22:00.516Z,21.49
2022-08-19T23:24:32.363Z,21.47
2022-08-19T23:27:21.697Z,21.44
2022-08-19T23:30:13.098Z,21.41
2022-08-19T23:32:46.476Z,21.38
2022-08-19T23:35:18.251Z,21.38
2022-08-19T23:37:51.902Z,21.37
2022-08-19T23:40:24.016Z,21.35
2022-08-19T23:42:55.713Z,21.36
2022-08-19T23:45:28.075Z,21.36
2022-08-19T23:48:03.577Z,21.36
2022-08-19T23:50:36.237Z,21.33
2022-08-19T23:53:09.480Z,21.32
2022-08-19T23:55:44.858Z,21.30
2022-08-19T23:58:17.678Z,21.26
